Terminal Aerodrome Forecast
Issued by NWS Cleveland, OH

Home | Current Version | Previous Version | Text Only | Print | Product List | Glossary Off
Versions: 1 2 3 4 5 6 7 8 9 10 11 12 13 14 15 16 17 18 19 20 21 22 23 24

000
FTUS41 KCLE 171300 AAA
TAFMFD
TAF AMD
KMFD 171336Z 1714/1812 VRB04KT 3SM BR BKN005 OVC015
     FM171500 31004KT P6SM BKN012 OVC030
     FM171900 35006KT P6SM SCT030 BKN090
     FM180900 09002KT 4SM BR SCT015 BKN035=

USA.gov is the U.S. government's official web portal to all federal, state and local government web resources and services.